| time (UTC) | temp F | wind direction | speed MPH | gust MPH | rain 1hr in | rain 24hr in | rain mn in | humidity % | barometer mb |
| 20260510031558 | 67 | 0 | 0.0 | 2.0 | 0.00 | 0.21 | 0.20 | 97 | 1013.4 |
| 20260510030054 | 67 | 0 | 0.0 | 3.0 | 0.00 | 0.21 | 0.20 | 96 | 1013.7 |
| 20260510024558 | 67 | 0 | 0.0 | 2.0 | 0.00 | 0.21 | 0.20 | 96 | 1013.6 |
| 20260510023054 | 67 | 206 | 0.0 | 1.0 | 0.00 | 0.21 | 0.20 | 96 | 1013.6 |
| 20260510021604 | 68 | 0 | 0.0 | 0.0 | 0.00 | 0.21 | 0.20 | 96 | 1013.0 |
| 20260510020054 | 68 | 0 | 0.0 | 1.0 | 0.00 | 0.21 | 0.20 | 96 | 1012.8 |
| 20260510014601 | 68 | 0 | 0.0 | 0.0 | 0.00 | 0.21 | 0.20 | 95 | 1012.9 |
| 20260510013117 | 68 | 0 | 0.0 | 1.0 | 0.00 | 0.21 | 0.20 | 95 | 1012.6 |
| 20260510011555 | 68 | 0 | 0.0 | 4.0 | 0.00 | 0.21 | 0.20 | 95 | 1012.2 |
| 20260510010056 | 68 | 327 | 4.0 | 7.0 | 0.00 | 0.21 | 0.20 | 95 | 1011.6 |
| 20260510004555 | 68 | 217 | 1.0 | 5.0 | 0.00 | 0.21 | 0.20 | 94 | 1010.8 |
| 20260510003104 | 68 | 193 | 1.0 | 5.0 | 0.00 | 0.21 | 0.20 | 94 | 1011.7 |
| 20260510001552 | 69 | 220 | 1.0 | 4.0 | 0.00 | 0.21 | 0.20 | 94 | 1011.9 |
| 20260510000113 | 69 | 0 | 0.0 | 1.0 | 0.00 | 0.21 | 0.20 | 94 | 1012.0 |
| 20260509234551 | 69 | 0 | 0.0 | 2.0 | 0.00 | 0.21 | 0.20 | 93 | 1012.0 |
| 20260509233054 | 70 | 240 | 1.0 | 3.0 | 0.00 | 0.21 | 0.20 | 92 | 1011.9 |
| 20260509231556 | 69 | 0 | 0.0 | 4.0 | 0.00 | 0.21 | 0.20 | 92 | 1011.8 |
| 20260509230058 | 70 | 0 | 0.0 | 4.0 | 0.00 | 0.21 | 0.20 | 93 | 1011.4 |
| 20260509224553 | 71 | 0 | 0.0 | 3.0 | 0.00 | 0.21 | 0.20 | 91 | 1011.6 |
| 20260509223056 | 71 | 0 | 0.0 | 5.0 | 0.00 | 0.21 | 0.20 | 92 | 1011.5 |
| 20260509221600 | 70 | 0 | 3.0 | 7.0 | 0.00 | 0.21 | 0.20 | 93 | 1011.3 |
| 20260509220050 | 69 | 32 | 0.0 | 4.0 | 0.00 | 0.21 | 0.20 | 94 | 1011.6 |
| 20260509214602 | 69 | 171 | 0.0 | 7.0 | 0.02 | 0.21 | 0.20 | 95 | 1011.6 |
| 20260509213054 | 69 | 191 | 1.0 | 4.0 | 0.03 | 0.21 | 0.20 | 94 | 1011.4 |
| 20260509211553 | 70 | 45 | 2.0 | 5.0 | 0.03 | 0.21 | 0.20 | 94 | 1011.5 |
| 20260509210054 | 70 | 199 | 0.0 | 5.0 | 0.03 | 0.21 | 0.20 | 94 | 1011.3 |
| 20260509204549 | 71 | 0 | 1.0 | 6.0 | 0.01 | 0.19 | 0.18 | 91 | 1011.2 |
| 20260509203052 | 71 | 283 | 1.0 | 4.0 | 0.00 | 0.18 | 0.17 | 90 | 1011.6 |
| 20260509201553 | 72 | 5 | 0.0 | 3.0 | 0.00 | 0.18 | 0.17 | 89 | 1011.7 |
| 20260509200049 | 72 | 0 | 0.0 | 1.0 | 0.00 | 0.18 | 0.17 | 88 | 1011.6 |
| 20260509194555 | 72 | 0 | 0.0 | 1.0 | 0.00 | 0.18 | 0.17 | 88 | 1011.8 |
| 20260509193058 | 73 | 0 | 0.0 | 5.0 | 0.00 | 0.18 | 0.17 | 87 | 1011.6 |
| 20260509191550 | 74 | 50 | 0.0 | 4.0 | 0.00 | 0.18 | 0.17 | 88 | 1011.6 |
| 20260509190054 | 72 | 0 | 0.0 | 2.0 | 0.00 | 0.18 | 0.17 | 90 | 1011.6 |
| 20260509184607 | 73 | 0 | 0.0 | 0.0 | 0.00 | 0.18 | 0.17 | 90 | 1011.6 |
| 20260509183109 | 73 | 0 | 0.0 | 1.0 | 0.00 | 0.18 | 0.17 | 88 | 1011.8 |
| 20260509181558 | 72 | 0 | 0.0 | 3.0 | 0.00 | 0.18 | 0.17 | 88 | 1011.9 |
| 20260509180103 | 73 | 0 | 0.0 | 3.0 | 0.00 | 0.18 | 0.17 | 89 | 1011.8 |
| 20260509174557 | 72 | 0 | 0.0 | 1.0 | 0.00 | 0.18 | 0.17 | 89 | 1012.3 |
| 20260509173104 | 72 | 0 | 0.0 | 1.0 | 0.00 | 0.18 | 0.17 | 88 | 1012.3 |
| 20260509171551 | 72 | 49 | 0.0 | 2.0 | 0.00 | 0.18 | 0.17 | 90 | 1012.3 |
| 20260509170057 | 72 | 0 | 0.0 | 2.0 | 0.00 | 0.18 | 0.17 | 89 | 1012.8 |
| 20260509164553 | 72 | 346 | 1.0 | 3.0 | 0.00 | 0.19 | 0.17 | 89 | 1012.8 |
| 20260509163056 | 72 | 0 | 0.0 | 0.0 | 0.00 | 0.19 | 0.17 | 89 | 1012.8 |
| 20260509161552 | 72 | 0 | 0.0 | 1.0 | 0.00 | 0.19 | 0.17 | 90 | 1012.9 |
| 20260509160052 | 72 | 0 | 0.0 | 1.0 | 0.00 | 0.19 | 0.17 | 90 | 1012.9 |
| 20260509154550 | 71 | 0 | 0.0 | 2.0 | 0.00 | 0.23 | 0.17 | 92 | 1012.7 |
| 20260509153056 | 70 | 0 | 0.0 | 1.0 | 0.00 | 0.23 | 0.17 | 93 | 1012.5 |
| 20260509151553 | 70 | 0 | 0.0 | 0.0 | 0.00 | 0.23 | 0.17 | 95 | 1012.5 |
| 20260509150057 | 69 | 0 | 0.0 | 1.0 | 0.00 | 0.23 | 0.17 | 97 | 1012.3 |
| 20260509144552 | 69 | 0 | 0.0 | 1.0 | 0.00 | 0.97 | 0.17 | 98 | 1012.3 |
| 20260509143059 | 68 | 0 | 0.0 | 1.0 | 0.00 | 0.97 | 0.17 | 98 | 1012.2 |
| 20260509141559 | 68 | 0 | 0.0 | 1.0 | 0.00 | 0.97 | 0.17 | 98 | 1012.1 |
| 20260509140059 | 67 | 0 | 0.0 | 1.0 | 0.00 | 0.97 | 0.17 | 98 | 1012.1 |
| 20260509134557 | 67 | 0 | 0.0 | 3.0 | 0.00 | 1.42 | 0.17 | 98 | 1012.1 |
| 20260509133056 | 66 | 0 | 0.0 | 0.0 | 0.00 | 1.42 | 0.17 | 98 | 1012.0 |
| 20260509131557 | 66 | 0 | 0.0 | 0.0 | 0.00 | 1.42 | 0.17 | 98 | 1012.0 |
| 20260509130057 | 65 | 69 | 0.0 | 0.0 | 0.00 | 1.42 | 0.17 | 98 | 1011.7 |
| 20260509124554 | 65 | 0 | 0.0 | 1.0 | 0.00 | 2.51 | 0.17 | 98 | 1012.0 |
| 20260509123118 | 65 | 0 | 0.0 | 1.0 | 0.00 | 2.51 | 0.17 | 98 | 1012.2 |
| 20260509121558 | 65 | 0 | 0.0 | 1.0 | 0.00 | 2.51 | 0.17 | 98 | 1011.8 |
| 20260509120055 | 64 | 0 | 0.0 | 0.0 | 0.00 | 2.51 | 0.17 | 98 | 1012.2 |
| 20260509114554 | 64 | 7 | 0.0 | 1.0 | 0.03 | 2.61 | 0.17 | 98 | 1012.1 |
| 20260509113050 | 64 | 0 | 0.0 | 1.0 | 0.03 | 2.61 | 0.17 | 98 | 1012.0 |
| 20260509111551 | 64 | 0 | 0.0 | 0.0 | 0.03 | 2.61 | 0.17 | 97 | 1011.7 |
| 20260509110053 | 64 | 0 | 0.0 | 0.0 | 0.06 | 2.61 | 0.17 | 97 | 1011.9 |
| 20260509104546 | 64 | 0 | 0.0 | 1.0 | 0.04 | 2.58 | 0.14 | 97 | 1011.9 |
| 20260509103104 | 64 | 60 | 0.0 | 6.0 | 0.04 | 2.58 | 0.14 | 97 | 1011.8 |
| 20260509101552 | 64 | 21 | 0.0 | 8.0 | 0.04 | 2.58 | 0.14 | 97 | 1011.8 |
| 20260509100059 | 65 | 46 | 6.0 | 12.0 | 0.01 | 2.55 | 0.11 | 97 | 1012.1 |
| 20260509094556 | 67 | 315 | 4.0 | 8.0 | 0.00 | 2.54 | 0.10 | 98 | 1012.3 |
| 20260509093057 | 68 | 18 | 0.0 | 3.0 | 0.01 | 2.54 | 0.10 | 98 | 1011.7 |
| 20260509091553 | 68 | 0 | 0.0 | 1.0 | 0.10 | 2.54 | 0.10 | 98 | 1011.3 |
| 20260509090056 | 68 | 0 | 0.0 | 0.0 | 0.10 | 2.54 | 0.10 | 98 | 1011.2 |
| 20260509084552 | 68 | 0 | 0.0 | 1.0 | 0.10 | 2.54 | 0.10 | 98 | 1010.9 |
| 20260509083101 | 68 | 0 | 0.0 | 0.0 | 0.09 | 2.53 | 0.09 | 98 | 1010.6 |
| 20260509081555 | 67 | 0 | 0.0 | 0.0 | 0.00 | 2.44 | 0.00 | 98 | 1010.8 |
| 20260509080059 | 67 | 0 | 0.0 | 0.0 | 0.00 | 2.44 | 0.00 | 98 | 1010.7 |
| 20260509074605 | 67 | 0 | 0.0 | 1.0 | 0.00 | 2.44 | 0.00 | 98 | 1010.9 |
| 20260509073053 | 67 | 0 | 0.0 | 1.0 | 0.00 | 2.44 | 0.00 | 98 | 1011.0 |
| 20260509071604 | 67 | 0 | 0.0 | 1.0 | 0.00 | 2.44 | 0.00 | 97 | 1011.0 |
| 20260509070057 | 67 | 0 | 0.0 | 0.0 | 0.00 | 2.44 | 0.00 | 97 | 1011.1 |
| 20260509064548 | 67 | 0 | 0.0 | 0.0 | 0.00 | 2.44 | 0.00 | 97 | 1011.1 |
| 20260509063051 | 68 | 0 | 0.0 | 3.0 | 0.00 | 2.44 | 0.00 | 97 | 1011.2 |
| 20260509061601 | 68 | 0 | 0.0 | 3.0 | 0.00 | 2.44 | 0.00 | 97 | 1011.1 |
| 20260509060101 | 68 | 0 | 0.0 | 2.0 | 0.00 | 2.44 | 0.00 | 97 | 1011.3 |
| 20260509054606 | 68 | 205 | 1.0 | 4.0 | 0.00 | 2.44 | 0.00 | 97 | 1011.3 |
| 20260509053052 | 68 | 166 | 2.0 | 5.0 | 0.00 | 2.44 | 0.00 | 97 | 1011.5 |
| 20260509051553 | 68 | 179 | 1.0 | 7.0 | 0.00 | 2.44 | 0.00 | 97 | 1011.7 |
| 20260509050055 | 68 | 190 | 2.0 | 4.0 | 0.00 | 2.44 | 0.00 | 97 | 1011.7 |
| 20260509044551 | 67 | 203 | 1.0 | 3.0 | 0.00 | 2.44 | 2.44 | 97 | 1011.7 |
| 20260509043058 | 67 | 0 | 0.0 | 2.0 | 0.00 | 2.44 | 2.44 | 97 | 1011.7 |
| 20260509041553 | 68 | 146 | 1.0 | 3.0 | 0.00 | 2.44 | 2.44 | 97 | 1012.1 |
| 20260509040055 | 68 | 0 | 0.0 | 1.0 | 0.01 | 2.44 | 2.44 | 97 | 1011.7 |
| 20260509034553 | 68 | 0 | 0.0 | 4.0 | 0.01 | 2.44 | 2.44 | 97 | 1011.7 |
| 20260509033053 | 68 | 0 | 0.0 | 1.0 | 0.01 | 2.44 | 2.44 | 97 | 1011.6 |